Time;durP1;ratioP1;P1;durP2;ratioP2;P2;SDS_P1;SDS_P2;PMS_P1;PMS_P2;Temp;Humidity;BMP_temperature;BMP_pressure;BME280_temperature;BME280_humidity;BME280_pressure;Samples;Min_cycle;Max_cycle;Signal;HPM_P1;HPM_P2
2021/07/28 00:00:41;;;;;;;14.98;9.00;;;;;;;19.53;78.23;99591.91;2209921;40;20030;-85
2021/07/28 00:02:13;;;;;;;16.23;10.50;;;;;;;19.48;78.38;99590.69;2210109;40;20031;-84
2021/07/28 00:03:45;;;;;;;13.27;9.63;;;;;;;19.58;78.48;99594.81;2210332;40;20034;-85
2021/07/28 00:05:16;;;;;;;14.63;9.75;;;;;;;19.56;78.37;99586.06;2210201;40;20026;-83
2021/07/28 00:06:48;;;;;;;12.23;8.93;;;;;;;19.58;78.32;99589.38;2207988;40;20050;-85
2021/07/28 00:08:21;;;;;;;14.50;10.82;;;;;;;19.64;78.08;99588.53;2204311;40;20462;-86
2021/07/28 00:09:52;;;;;;;13.52;10.65;;;;;;;19.61;78.18;99589.78;2204103;40;20039;-85
2021/07/28 00:11:23;;;;;;;12.70;10.32;;;;;;;19.58;78.33;99589.38;2204504;40;20033;-87
2021/07/28 00:12:56;;;;;;;11.45;8.02;;;;;;;19.59;78.26;99578.34;2204182;40;20030;-85
2021/07/28 00:14:27;;;;;;;8.80;6.93;;;;;;;19.61;77.88;99580.84;2203991;40;20122;-87
2021/07/28 00:15:59;;;;;;;13.38;10.10;;;;;;;19.62;78.00;99583.31;2203890;40;20047;-88
2021/07/28 00:17:30;;;;;;;9.93;8.13;;;;;;;19.57;78.07;99576.88;2204114;40;20042;-85
2021/07/28 00:19:07;;;;;;;11.45;8.90;;;;;;;19.53;77.78;99584.59;2204077;40;20553;-84
2021/07/28 00:24:14;;;;;;;15.60;9.50;;;;;;;19.60;77.74;99569.13;2210065;40;20030;-86
2021/07/28 00:25:47;;;;;;;12.70;9.15;;;;;;;19.64;77.47;99567.66;2210239;40;20027;-84
2021/07/28 00:27:19;;;;;;;12.30;9.13;;;;;;;19.62;77.58;99569.75;2210116;40;20035;-83
2021/07/28 00:28:52;;;;;;;11.85;8.65;;;;;;;19.62;77.53;99561.63;2210105;40;20095;-85
2021/07/28 00:30:24;;;;;;;11.98;9.48;;;;;;;19.63;77.58;99559.75;2204075;40;20037;-84
2021/07/28 00:31:56;;;;;;;12.90;9.55;;;;;;;19.67;77.25;99560.97;2205383;40;20030;-84
2021/07/28 00:33:28;;;;;;;11.55;9.05;;;;;;;19.70;77.10;99554.28;2210005;40;20030;-85
2021/07/28 00:34:59;;;;;;;9.98;8.60;;;;;;;19.68;76.96;99557.22;2209683;40;20022;-83
2021/07/28 00:36:30;;;;;;;11.02;9.05;;;;;;;19.65;77.07;99554.94;2209904;40;20398;-84
2021/07/28 00:38:02;;;;;;;15.43;9.57;;;;;;;19.66;76.87;99556.59;2210027;40;20402;-85
2021/07/28 00:39:34;;;;;;;13.95;9.60;;;;;;;19.64;77.10;99554.13;2209915;40;20026;-83
2021/07/28 00:41:06;;;;;;;11.05;9.13;;;;;;;19.61;77.12;99551.00;2207688;40;20034;-83
2021/07/28 00:42:36;;;;;;;13.60;9.20;;;;;;;19.58;77.15;99552.28;2203222;40;20366;-83
2021/07/28 00:44:10;;;;;;;11.35;9.07;;;;;;;19.52;77.21;99558.53;2205150;40;20042;-83
2021/07/28 00:45:41;;;;;;;10.68;7.50;;;;;;;19.46;77.25;99570.25;2209348;40;20073;-84
2021/07/28 00:47:14;;;;;;;12.75;10.15;;;;;;;19.42;77.72;99575.28;2209478;40;20034;-85
2021/07/28 00:48:46;;;;;;;13.48;9.40;;;;;;;19.41;77.47;99570.91;2208953;40;20034;-83
2021/07/28 00:50:16;;;;;;;11.88;8.88;;;;;;;19.42;77.74;99569.84;2209223;40;20042;-83
2021/07/28 00:51:48;;;;;;;10.13;8.05;;;;;;;19.49;77.54;99564.41;2206124;40;20034;-83
2021/07/28 00:53:19;;;;;;;10.68;8.82;;;;;;;19.55;77.10;99560.03;2209418;40;20047;-82
2021/07/28 00:54:51;;;;;;;11.52;8.13;;;;;;;19.59;77.04;99563.94;2209447;40;20065;-84
2021/07/28 00:56:23;;;;;;;11.15;8.98;;;;;;;19.62;76.90;99567.06;2209450;40;20026;-82
2021/07/28 00:57:54;;;;;;;12.52;8.63;;;;;;;19.62;76.83;99572.47;2211572;40;20033;-84
2021/07/28 00:59:27;;;;;;;11.48;8.95;;;;;;;19.59;76.77;99562.06;2209251;40;20031;-82
2021/07/28 01:00:59;;;;;;;14.32;10.38;;;;;;;19.55;77.19;99562.72;2209359;40;20042;-85
2021/07/28 01:02:30;;;;;;;12.57;10.10;;;;;;;19.49;77.25;99562.53;2202898;40;20042;-82
2021/07/28 01:04:02;;;;;;;13.35;10.23;;;;;;;19.51;77.40;99566.91;2202796;40;20023;-85
2021/07/28 01:05:33;;;;;;;10.95;8.85;;;;;;;19.49;77.48;99559.81;2202865;40;20039;-82
2021/07/28 01:07:08;;;;;;;11.57;8.38;;;;;;;19.51;77.59;99564.19;2204524;40;20038;-84
2021/07/28 01:08:40;;;;;;;10.98;6.88;;;;;;;19.58;77.33;99564.97;2203828;40;20038;-88
2021/07/28 01:10:13;;;;;;;8.85;7.13;;;;;;;19.70;77.13;99565.13;2203881;40;20506;-87
2021/07/28 01:11:45;;;;;;;11.77;9.40;;;;;;;19.77;76.88;99569.47;2203145;40;20023;-84
2021/07/28 01:13:26;;;;;;;11.75;10.30;;;;;;;19.76;76.93;99567.81;2202126;40;20031;-83
2021/07/28 01:14:59;;;;;;;13.93;10.23;;;;;;;19.68;76.91;99567.25;2208330;40;20067;-83
2021/07/28 01:16:32;;;;;;;13.70;9.00;;;;;;;19.64;77.52;99564.16;2209134;40;20573;-83
2021/07/28 01:18:06;;;;;;;13.27;10.95;;;;;;;19.62;77.65;99572.47;2209379;40;20101;-82
2021/07/28 01:19:45;;;;;;;13.75;10.55;;;;;;;19.56;77.99;99570.63;2204058;40;20107;-87
2021/07/28 01:21:18;;;;;;;13.38;9.93;;;;;;;19.56;78.14;99578.75;2203335;40;20474;-82
2021/07/28 01:22:54;;;;;;;12.68;9.75;;;;;;;19.59;78.01;99577.50;2204778;40;20580;-81
2021/07/28 01:24:28;;;;;;;14.63;10.70;;;;;;;19.51;78.64;99575.03;2208059;40;20029;-83
2021/07/28 01:26:02;;;;;;;15.02;11.30;;;;;;;19.45;78.96;99574.88;2209536;40;20038;-86
2021/07/28 01:27:33;;;;;;;13.63;10.52;;;;;;;19.48;78.90;99569.00;2209669;40;20038;-82
2021/07/28 01:29:05;;;;;;;12.45;10.40;;;;;;;19.46;78.99;99571.06;2209789;40;20041;-83
2021/07/28 01:30:37;;;;;;;13.50;11.15;;;;;;;19.42;79.12;99564.44;2206628;40;20018;-82
2021/07/28 01:32:09;;;;;;;16.48;12.25;;;;;;;19.41;79.17;99562.78;2209890;40;20049;-82
2021/07/28 01:33:42;;;;;;;14.55;12.00;;;;;;;19.40;79.20;99565.72;2209989;40;20038;-84
2021/07/28 01:35:15;;;;;;;11.80;9.95;;;;;;;19.37;79.36;99571.53;2209938;40;20046;-83
2021/07/28 01:36:48;;;;;;;17.42;11.90;;;;;;;19.36;79.11;99567.16;2208605;40;20077;-84
2021/07/28 01:38:25;;;;;;;13.77;11.65;;;;;;;19.33;79.18;99569.25;2209774;40;20046;-85
2021/07/28 01:39:58;;;;;;;15.27;11.45;;;;;;;19.37;79.19;99572.38;2209548;40;20033;-84
2021/07/28 01:41:30;;;;;;;12.05;9.25;;;;;;;19.41;78.98;99579.03;2209773;40;20039;-86
2021/07/28 01:43:11;;;;;;;12.95;11.25;;;;;;;19.46;78.91;99570.25;2209886;40;20018;-87
2021/07/28 01:44:43;;;;;;;13.13;9.82;;;;;;;19.43;79.18;99570.69;2209651;40;20054;-86
2021/07/28 01:46:15;;;;;;;11.77;8.90;;;;;;;19.46;79.17;99560.22;2209786;40;20037;-85
2021/07/28 01:47:46;;;;;;;10.25;8.18;;;;;;;19.47;79.14;99564.59;2209633;40;20035;-82
2021/07/28 01:49:18;;;;;;;12.32;9.38;;;;;;;19.46;79.18;99565.66;2209855;40;20030;-87
2021/07/28 01:50:51;;;;;;;10.68;8.90;;;;;;;19.45;79.37;99560.47;2209750;40;20046;-87
2021/07/28 01:52:22;;;;;;;11.35;10.18;;;;;;;19.48;79.02;99568.16;2209802;40;20040;-87
2021/07/28 01:53:53;;;;;;;11.73;9.35;;;;;;;19.49;79.22;99561.72;2209789;40;20482;-86
2021/07/28 01:55:26;;;;;;;10.35;8.30;;;;;;;19.53;79.20;99572.94;2209525;40;20030;-88
2021/07/28 01:56:57;;;;;;;11.25;8.88;;;;;;;19.57;78.88;99571.44;2209803;40;20050;-87
2021/07/28 01:58:28;;;;;;;12.65;10.05;;;;;;;19.57;78.96;99568.75;2209900;40;20034;-85
2021/07/28 02:00:00;;;;;;;10.15;8.50;;;;;;;19.58;78.93;99567.69;2209439;40;20038;-87
2021/07/28 02:01:31;;;;;;;12.57;8.93;;;;;;;19.60;78.56;99565.59;2209728;40;20101;-85
2021/07/28 02:03:06;;;;;;;12.20;9.43;;;;;;;19.62;78.92;99577.06;2209756;40;20034;-88
2021/07/28 02:04:37;;;;;;;12.20;10.35;;;;;;;19.57;78.52;99568.75;2209273;40;20026;-84
2021/07/28 02:06:09;;;;;;;13.45;10.23;;;;;;;19.46;78.69;99581.91;2208892;40;20152;-84
2021/07/28 02:07:40;;;;;;;12.10;9.60;;;;;;;19.41;78.83;99584.44;2210676;40;20035;-85
2021/07/28 02:09:12;;;;;;;13.07;11.63;;;;;;;19.36;79.16;99581.56;2215806;40;20046;-83
2021/07/28 02:10:47;;;;;;;14.23;10.70;;;;;;;19.31;79.23;99584.91;2215731;40;20034;-83
2021/07/28 02:12:17;;;;;;;12.82;8.60;;;;;;;19.26;79.70;99576.59;2215915;40;20495;-83
2021/07/28 02:13:49;;;;;;;10.55;8.93;;;;;;;19.25;79.89;99584.94;2215711;40;20042;-85
2021/07/28 03:13:46;;;;;;;10.18;8.45;;;;;;;19.20;80.80;99587.44;3774702;23;20889;31
2021/07/28 04:10:37;;;;;;;6.38;4.78;;;;;;;18.94;77.25;99572.91;2173485;41;20041;-80
2021/07/28 04:12:11;;;;;;;8.02;5.75;;;;;;;18.94;77.39;99572.91;2160301;41;20037;-78
2021/07/28 04:13:52;;;;;;;8.50;5.18;;;;;;;18.91;77.26;99571.44;2160164;41;20068;-79
2021/07/28 04:15:34;;;;;;;6.88;5.43;;;;;;;18.95;77.12;99572.69;2174929;40;20048;-78
2021/07/28 04:17:15;;;;;;;9.02;6.13;;;;;;;18.96;76.84;99578.97;2184459;40;20040;-78
2021/07/28 04:18:50;;;;;;;7.38;5.22;;;;;;;18.98;76.68;99568.75;2194059;40;20098;-79
2021/07/28 04:26:21;;;;;;;8.52;5.57;;;;;;;19.11;75.48;99574.13;2209202;40;20568;-81
2021/07/28 04:28:05;;;;;;;7.35;5.65;;;;;;;19.15;75.48;99575.38;2210444;40;20030;-79
2021/07/28 04:29:36;;;;;;;6.07;4.57;;;;;;;19.20;75.42;99566.59;2210627;40;20030;-80
2021/07/28 04:41:04;;;;;;;7.13;4.95;;;;;;;19.29;73.92;99576.16;3114243;23;20187;-78
2021/07/28 04:42:47;;;;;;;5.97;4.40;;;;;;;19.27;73.38;99574.72;2181212;40;63060;-78
2021/07/28 04:45:31;;;;;;;6.93;4.75;;;;;;;19.35;73.30;99579.91;2239597;39;20590;-79
2021/07/28 04:47:13;;;;;;;7.13;4.80;;;;;;;19.33;73.19;99574.69;2207431;40;20046;-80
2021/07/28 04:50:53;;;;;;;7.32;5.07;;;;;;;19.36;72.67;99587.00;2207471;40;20077;-80
2021/07/28 04:52:39;;;;;;;6.88;5.03;;;;;;;19.36;72.38;99575.31;2208170;40;20046;-78
2021/07/28 04:54:13;;;;;;;7.88;4.82;;;;;;;19.30;72.06;99572.41;2210384;40;20031;-80
2021/07/28 04:58:16;;;;;;;7.38;5.18;;;;;;;19.27;71.87;99569.31;2202783;40;20054;-80
2021/07/28 04:59:52;;;;;;;6.70;4.57;;;;;;;19.24;72.18;99573.25;2207097;40;20058;-81
2021/07/28 05:01:27;;;;;;;7.28;4.93;;;;;;;19.26;72.19;99570.34;2209080;40;20125;-78
2021/07/28 05:04:48;;;;;;;6.85;5.15;;;;;;;19.29;72.33;99568.03;2213887;40;20394;-79
2021/07/28 05:06:18;;;;;;;7.75;4.68;;;;;;;19.29;72.21;99568.03;2212893;40;20042;-78
2021/07/28 05:07:50;;;;;;;7.38;5.63;;;;;;;19.30;72.56;99571.56;2214034;40;20507;-79
2021/07/28 05:09:21;;;;;;;8.13;5.68;;;;;;;19.32;72.48;99569.47;2213678;40;20049;-78
2021/07/28 05:13:00;;;;;;;7.20;5.10;;;;;;;19.26;72.56;99589.31;2215277;40;20065;-79
2021/07/28 05:14:33;;;;;;;9.45;5.47;;;;;;;19.26;72.33;99592.03;2214749;40;20046;-79
2021/07/28 05:16:07;;;;;;;8.13;4.93;;;;;;;19.29;71.99;99580.72;2214572;40;20123;-77
2021/07/28 05:17:41;;;;;;;6.82;4.63;;;;;;;19.28;71.82;99574.50;2212693;40;20017;-78
2021/07/28 05:19:12;;;;;;;8.30;5.40;;;;;;;19.28;71.61;99579.06;2214597;40;20648;-79
2021/07/28 05:20:46;;;;;;;7.53;5.03;;;;;;;19.28;71.44;99581.78;2222036;40;20127;-80
2021/07/28 05:22:41;;;;;;;7.07;5.25;;;;;;;19.29;71.31;99583.44;2221329;40;20110;-80
2021/07/28 05:24:13;;;;;;;8.00;5.38;;;;;;;19.30;71.09;99585.13;2221112;40;20033;-79
2021/07/28 05:25:47;;;;;;;9.88;4.57;;;;;;;19.28;70.38;99584.50;2221488;40;20040;-80
2021/07/28 05:27:19;;;;;;;11.63;5.70;;;;;;;19.31;70.03;99584.06;2220750;40;20042;-78
2021/07/28 05:28:51;;;;;;;8.80;4.95;;;;;;;19.30;70.22;99593.25;2221371;40;20037;-79
2021/07/28 05:38:09;;;;;;;10.75;6.15;;;;;;;19.14;71.20;99589.97;2223105;40;20383;-80
2021/07/28 05:43:16;;;;;;;7.65;5.32;;;;;;;19.14;71.55;99589.97;2183447;40;20057;-79
2021/07/28 05:44:59;;;;;;;7.53;4.88;;;;;;;19.18;70.97;99585.75;2184647;40;20056;-79
2021/07/28 05:46:30;;;;;;;8.75;4.72;;;;;;;19.14;70.54;99589.97;2182772;40;20067;-79
2021/07/28 05:48:02;;;;;;;7.18;4.85;;;;;;;19.14;70.77;99589.97;2182566;40;20115;-78
2021/07/28 05:49:40;;;;;;;7.22;4.80;;;;;;;19.18;70.64;99591.19;2183421;40;20044;-79
2021/07/28 05:51:13;;;;;;;7.03;4.95;;;;;;;19.19;70.01;99594.75;2183114;40;20035;-79
2021/07/28 05:52:45;;;;;;;6.45;4.40;;;;;;;19.24;69.73;99585.97;2182708;40;20131;-79
2021/07/28 05:54:16;;;;;;;7.63;5.10;;;;;;;19.26;69.46;99579.28;2184210;40;20056;-80
2021/07/28 05:55:56;;;;;;;5.65;3.80;;;;;;;19.27;68.79;99590.97;2182342;40;20028;-80
2021/07/28 05:57:53;;;;;;;7.97;5.40;;;;;;;19.31;68.76;99584.91;2184202;40;20132;-82
2021/07/28 05:59:27;;;;;;;6.43;4.40;;;;;;;19.41;68.50;99589.06;2181628;40;20028;-79
2021/07/28 06:01:00;;;;;;;8.18;5.55;;;;;;;19.45;68.49;99590.28;2177317;40;20057;-79
2021/07/28 06:02:31;;;;;;;7.10;4.90;;;;;;;19.51;68.30;99591.28;2182210;40;20044;-80
2021/07/28 07:04:52;;;;;;;10.95;5.85;;;;;;;19.68;69.71;99616.88;3010429;23;20176;-80
2021/07/28 07:06:29;;;;;;;8.50;5.45;;;;;;;19.69;69.67;99621.25;2182413;41;20091;-81
2021/07/28 07:08:17;;;;;;;9.43;4.85;;;;;;;19.71;69.59;99607.47;2182173;41;20091;-81
2021/07/28 07:09:53;;;;;;;9.52;5.72;;;;;;;19.68;69.60;99614.16;2183297;40;20152;-81
2021/07/28 07:11:29;;;;;;;8.27;4.95;;;;;;;19.68;69.61;99611.44;2179193;40;20052;-79
2021/07/28 07:13:11;;;;;;;9.52;5.10;;;;;;;19.71;69.58;99615.59;2181458;41;20047;-81
2021/07/28 08:07:31;;;;;;;8.70;5.72;;;;;;;20.62;67.02;99638.03;2184385;40;20126;-81
2021/07/28 08:09:03;;;;;;;8.85;5.35;;;;;;;20.60;67.51;99637.44;2183576;40;20040;-78
2021/07/28 08:15:29;;;;;;;9.82;5.35;;;;;;;20.54;66.93;99624.75;2212585;23;20060;-78
2021/07/28 08:17:04;;;;;;;8.27;5.07;;;;;;;20.50;67.07;99618.09;2177428;41;20039;-77
2021/07/28 08:18:34;;;;;;;8.02;5.70;;;;;;;20.44;66.89;99618.97;2178644;41;20064;-79
2021/07/28 08:20:07;;;;;;;8.50;5.75;;;;;;;20.44;66.82;99621.69;2177699;40;20066;-78
2021/07/28 08:21:39;;;;;;;7.65;5.30;;;;;;;20.42;67.06;99633.59;2178520;41;20032;-78
2021/07/28 08:23:13;;;;;;;8.38;5.03;;;;;;;20.49;66.89;99630.03;2178170;41;20268;-79
2021/07/28 08:24:45;;;;;;;8.73;5.28;;;;;;;20.55;66.68;99629.94;2175995;41;20068;-78
2021/07/28 08:26:17;;;;;;;7.82;5.68;;;;;;;20.59;66.43;99627.66;2174794;40;20063;-79
2021/07/28 08:27:48;;;;;;;9.18;5.38;;;;;;;20.70;66.27;99634.22;2172995;41;20444;-81
2021/07/28 08:29:20;;;;;;;8.73;5.68;;;;;;;20.79;66.04;99635.66;2173047;41;20085;-78
2021/07/28 08:30:55;;;;;;;9.48;4.93;;;;;;;20.75;66.06;99637.13;2171949;41;20060;-79
2021/07/28 08:32:25;;;;;;;7.55;5.00;;;;;;;20.81;65.90;99640.84;2169442;41;20108;-80
2021/07/28 08:33:57;;;;;;;7.15;5.10;;;;;;;20.86;65.64;99636.41;2175826;41;20037;-79
2021/07/28 08:35:29;;;;;;;10.07;5.45;;;;;;;20.81;65.85;99641.69;2180143;41;20048;-77
2021/07/28 08:37:01;;;;;;;7.80;5.10;;;;;;;20.85;65.65;99628.50;2174271;41;20033;-78
2021/07/28 08:38:35;;;;;;;9.57;5.60;;;;;;;20.94;65.27;99624.44;2172945;41;20107;-78
2021/07/28 08:40:10;;;;;;;7.03;5.22;;;;;;;21.04;64.96;99613.91;2172601;41;20032;-79
2021/07/28 08:41:44;;;;;;;6.38;4.63;;;;;;;21.04;64.86;99608.47;2173096;41;20049;-79
2021/07/28 08:43:20;;;;;;;8.43;4.65;;;;;;;21.06;64.39;99610.94;2172084;41;20462;-79
2021/07/28 08:44:52;;;;;;;9.77;5.40;;;;;;;21.10;63.95;99608.59;2171264;41;20044;-78
2021/07/28 08:46:25;;;;;;;9.05;5.75;;;;;;;21.11;64.19;99618.44;2172129;41;20302;-79
2021/07/28 08:47:56;;;;;;;8.77;5.32;;;;;;;21.11;64.35;99607.56;2170493;41;20064;-80
2021/07/28 08:49:28;;;;;;;8.75;5.00;;;;;;;21.11;64.53;99611.09;2167901;41;20060;-79
2021/07/28 08:51:02;;;;;;;8.23;4.95;;;;;;;21.17;64.73;99617.50;2172772;41;20025;-80
2021/07/28 08:52:34;;;;;;;8.27;5.70;;;;;;;21.13;64.81;99614.41;2173817;41;20044;-80
2021/07/28 08:54:07;;;;;;;7.47;4.90;;;;;;;21.12;64.99;99609.22;2173339;41;20029;-81
2021/07/28 09:00:27;;;;;;;7.03;4.40;;;;;;;21.25;64.83;99614.53;2170680;41;20045;-82
2021/07/28 09:02:03;;;;;;;5.63;4.20;;;;;;;21.32;64.52;99609.84;2172460;41;20033;-81
2021/07/28 09:03:35;;;;;;;6.20;4.28;;;;;;;21.37;64.48;99611.88;2174169;41;20057;-83
2021/07/28 09:05:07;;;;;;;8.60;5.38;;;;;;;21.34;64.33;99606.88;2172864;41;20032;-81
2021/07/28 09:06:39;;;;;;;8.35;5.00;;;;;;;21.33;64.35;99610.66;2173458;41;20036;-82
2021/07/28 09:08:23;;;;;;;6.68;4.72;;;;;;;21.38;64.05;99612.69;2173288;41;20343;-82
2021/07/28 09:09:58;;;;;;;7.68;5.15;;;;;;;21.37;64.05;99611.03;2173658;41;20037;-82
2021/07/28 09:11:46;;;;;;;10.18;4.68;;;;;;;21.41;64.00;99601.38;2174371;41;20077;-85
2021/07/28 09:13:31;;;;;;;8.35;4.82;;;;;;;21.38;64.08;99608.09;2173286;41;20040;-85
2021/07/28 09:15:18;;;;;;;7.97;4.95;;;;;;;21.46;63.52;99612.38;2169841;41;20029;-84
2021/07/28 09:16:50;;;;;;;7.70;4.53;;;;;;;21.42;63.56;99611.19;2170312;41;20053;-84
2021/07/28 09:18:31;;;;;;;7.78;4.88;;;;;;;21.44;63.12;99601.75;2174916;41;20069;-85
2021/07/28 09:20:05;;;;;;;6.65;4.57;;;;;;;21.50;62.90;99603.56;2174408;41;20044;-84
2021/07/28 09:21:36;;;;;;;7.95;5.00;;;;;;;21.58;63.01;99596.16;2169445;41;20410;-91
2021/07/28 09:23:12;;;;;;;8.13;5.15;;;;;;;21.66;63.31;99604.84;2170240;41;20049;-82
2021/07/28 09:24:46;;;;;;;8.18;4.53;;;;;;;21.73;62.92;99612.09;2170363;41;20053;-81
2021/07/28 09:26:34;;;;;;;7.15;4.20;;;;;;;21.88;61.95;99609.81;2174864;41;20044;-81
2021/07/28 09:28:21;;;;;;;5.95;4.40;;;;;;;22.14;61.45;99610.50;2169842;41;20124;-84
2021/07/28 09:29:54;;;;;;;7.35;4.50;;;;;;;22.29;60.93;99608.16;2172341;41;20033;-85
2021/07/28 09:31:33;;;;;;;7.68;4.93;;;;;;;22.37;60.66;99603.47;2176887;41;20123;-82
2021/07/28 09:33:07;;;;;;;6.45;4.40;;;;;;;22.44;61.00;99604.22;2176750;41;20041;-86
2021/07/28 09:34:39;;;;;;;8.23;5.00;;;;;;;22.62;60.44;99602.47;2172469;41;20037;-85
2021/07/28 09:36:17;;;;;;;6.45;5.00;;;;;;;22.51;60.67;99604.94;2175501;41;20077;-85
2021/07/28 09:37:49;;;;;;;10.27;5.13;;;;;;;22.52;60.86;99603.88;2175204;41;20025;-84
2021/07/28 09:39:24;;;;;;;8.13;5.53;;;;;;;22.63;60.18;99607.66;2177232;41;20033;-86
2021/07/28 09:41:12;;;;;;;8.43;4.78;;;;;;;22.79;59.75;99610.78;2175805;41;20044;-84
2021/07/28 09:42:45;;;;;;;9.52;4.57;;;;;;;22.92;59.08;99609.72;2175374;41;20044;-88
2021/07/28 09:44:24;;;;;;;6.38;4.70;;;;;;;22.92;58.76;99610.53;2175694;41;20036;-83
2021/07/28 09:45:55;;;;;;;9.73;4.68;;;;;;;22.95;58.33;99603.78;2175187;41;20056;-85
2021/07/28 09:47:38;;;;;;;8.18;4.90;;;;;;;22.99;56.34;99604.97;2180642;41;20040;-86
2021/07/28 09:49:18;;;;;;;8.70;5.22;;;;;;;23.12;54.76;99593.81;2168686;41;20052;-83
2021/07/28 09:50:49;;;;;;;6.40;4.03;;;;;;;23.06;54.38;99597.47;2170357;41;20512;-82
2021/07/28 09:52:25;;;;;;;6.00;3.83;;;;;;;23.12;54.34;99599.28;2175517;41;20043;-83
2021/07/28 09:53:57;;;;;;;5.63;3.78;;;;;;;23.10;53.89;99598.69;2174819;41;20136;-86
2021/07/28 09:55:29;;;;;;;6.57;3.78;;;;;;;23.14;53.69;99601.75;2175479;41;20048;-84
2021/07/28 09:57:01;;;;;;;10.55;4.47;;;;;;;23.18;53.71;99606.53;2176182;41;20029;-83
2021/07/28 09:58:35;;;;;;;11.13;4.18;;;;;;;23.28;52.98;99610.53;2177250;41;20036;-84
2021/07/28 10:00:08;;;;;;;11.25;3.85;;;;;;;23.37;52.32;99609.09;2176456;41;20292;-86
2021/07/28 10:01:40;;;;;;;9.40;4.35;;;;;;;23.31;52.17;99612.78;2174054;41;20059;-84
2021/07/28 10:03:12;;;;;;;11.63;4.50;;;;;;;23.18;52.29;99613.84;2175341;41;20059;-84
2021/07/28 10:04:48;;;;;;;7.00;3.67;;;;;;;23.04;52.75;99614.09;2176745;40;20077;-89
2021/07/28 10:06:22;;;;;;;5.85;3.85;;;;;;;23.00;52.63;99618.34;2177814;40;20047;-88
2021/07/28 10:07:58;;;;;;;6.57;3.85;;;;;;;23.09;52.41;99613.38;2176780;41;20125;-85
2021/07/28 10:09:35;;;;;;;7.43;3.67;;;;;;;23.15;52.54;99620.59;2176744;41;20594;-85
2021/07/28 10:11:07;;;;;;;7.03;4.15;;;;;;;23.27;52.23;99614.31;2176473;41;20040;-83
2021/07/28 10:12:41;;;;;;;6.82;3.72;;;;;;;23.30;52.25;99622.84;2177748;40;20040;-89
2021/07/28 10:14:18;;;;;;;7.68;4.10;;;;;;;23.27;52.57;99611.59;2178599;41;20449;-87
2021/07/28 10:15:49;;;;;;;6.43;3.85;;;;;;;23.08;53.13;99625.34;2170876;41;20603;-88
2021/07/28 10:17:22;;;;;;;7.47;3.83;;;;;;;22.89;53.77;99624.63;2173618;40;20033;-84
2021/07/28 10:18:58;;;;;;;6.22;4.18;;;;;;;22.75;54.33;99622.13;2170913;40;20064;-83
2021/07/28 10:20:39;;;;;;;7.32;3.75;;;;;;;22.78;54.22;99620.81;2173186;40;20049;-89
2021/07/28 10:22:12;;;;;;;5.45;3.75;;;;;;;22.84;54.19;99625.34;2170984;41;20193;-85
2021/07/28 10:23:43;;;;;;;8.52;4.10;;;;;;;22.81;54.69;99623.09;2168703;41;20065;-79
2021/07/28 10:25:16;;;;;;;8.13;4.00;;;;;;;22.66;55.31;99622.72;2174966;41;20154;-81
2021/07/28 10:26:51;;;;;;;5.93;3.53;;;;;;;22.58;55.78;99627.44;2174846;41;20037;-82
2021/07/28 10:28:23;;;;;;;9.65;4.40;;;;;;;22.59;55.73;99622.84;2175588;41;20040;-83
2021/07/28 10:29:57;;;;;;;7.32;4.40;;;;;;;22.47;55.70;99625.53;2175972;41;20041;-80
2021/07/28 10:31:44;;;;;;;6.00;4.15;;;;;;;22.37;56.06;99620.63;2176299;41;20048;-84
2021/07/28 10:33:25;;;;;;;7.32;3.90;;;;;;;22.28;56.02;99622.88;2177961;40;20041;-88
2021/07/28 10:35:11;;;;;;;;;;;;;;;22.29;55.98;99619.06;2176501;41;20048;-85
2021/07/28 10:36:48;;;;;;;7.80;3.97;;;;;;;22.35;55.74;99627.38;2175059;41;19942;-82
2021/07/28 10:38:21;;;;;;;7.00;3.67;;;;;;;22.26;55.82;99619.53;2175535;41;20117;-85
2021/07/28 10:39:53;;;;;;;8.30;3.90;;;;;;;22.24;55.93;99612.66;2176436;41;20040;-86
2021/07/28 10:41:48;;;;;;;7.63;3.60;;;;;;;22.29;55.88;99623.69;2179069;40;20041;-83
2021/07/28 10:43:20;;;;;;;6.25;3.70;;;;;;;22.33;55.83;99618.59;2173373;40;20089;-86
2021/07/28 10:45:05;;;;;;;7.30;4.07;;;;;;;22.37;55.89;99609.72;2173552;40;20039;-85
2021/07/28 10:47:07;;;;;;;6.45;4.03;;;;;;;22.38;56.08;99611.38;2178388;40;20097;-85
2021/07/28 10:48:52;;;;;;;8.35;3.90;;;;;;;22.43;55.79;99608.00;2175892;40;20085;-85
2021/07/28 10:50:46;;;;;;;7.47;4.25;;;;;;;22.45;55.99;99616.78;2179174;40;20036;-79
2021/07/28 10:52:44;;;;;;;5.65;3.85;;;;;;;22.51;55.85;99609.56;2173863;40;20048;-82
2021/07/28 10:55:00;;;;;;;8.10;3.90;;;;;;;22.49;55.85;99607.06;2176151;41;20113;-80
2021/07/28 10:57:07;;;;;;;8.13;4.38;;;;;;;22.45;56.26;99616.78;2130083;40;20032;-83
2021/07/28 10:58:49;;;;;;;8.43;4.25;;;;;;;22.42;56.22;99612.63;2180113;40;20029;-82
2021/07/28 11:03:13;;;;;;;9.77;4.53;;;;;;;22.28;56.79;99616.56;2176983;41;20040;-81
2021/07/28 11:05:19;;;;;;;7.15;4.55;;;;;;;22.35;56.70;99605.59;2176056;41;20043;-83
2021/07/28 11:06:52;;;;;;;8.15;3.95;;;;;;;22.56;56.59;99596.91;2170621;41;20093;-83
2021/07/28 11:08:31;;;;;;;7.32;4.13;;;;;;;22.73;55.79;99609.81;2174932;41;20040;-80
2021/07/28 11:10:05;;;;;;;8.20;4.78;;;;;;;22.82;55.45;99605.69;2177690;40;20528;-85
2021/07/28 11:11:37;;;;;;;6.63;4.32;;;;;;;22.84;55.22;99597.25;2176268;41;20033;-84
2021/07/28 11:13:18;;;;;;;6.72;4.13;;;;;;;22.97;55.13;99597.03;2174391;41;20069;-82
2021/07/28 11:15:21;;;;;;;9.65;4.47;;;;;;;23.24;54.18;99602.00;2174854;41;20053;-83
2021/07/28 11:17:22;;;;;;;8.55;4.35;;;;;;;23.27;54.30;99596.09;2171954;41;20092;-82
2021/07/28 11:19:24;;;;;;;;;;;;;;;;;;;;;
2021/07/28 11:21:23;;;;;;;8.15;4.05;;;;;;;23.42;53.04;99589.28;2178446;40;19947;-84
2021/07/28 11:23:39;;;;;;;9.93;4.40;;;;;;;23.35;53.27;99587.53;2167208;41;20128;-82
2021/07/28 11:25:11;;;;;;;6.30;3.95;;;;;;;23.48;53.07;99582.84;2171951;41;20411;-82
2021/07/28 11:26:42;;;;;;;10.40;4.15;;;;;;;23.49;52.75;99582.63;2169959;41;20059;-82
2021/07/28 11:28:24;;;;;;;16.55;13.18;;;;;;;23.46;53.16;99587.75;2173266;41;20108;-84
2021/07/28 11:30:28;;;;;;;8.30;4.78;;;;;;;23.32;53.17;99592.66;2175708;41;20189;-83
2021/07/28 11:32:33;;;;;;;9.80;5.32;;;;;;;23.39;52.77;99593.34;2176024;41;20397;-83
2021/07/28 11:35:00;;;;;;;6.22;4.00;;;;;;;23.42;52.04;99581.94;2179688;41;20088;-85
2021/07/28 11:36:35;;;;;;;7.20;3.90;;;;;;;23.43;51.96;99578.13;2173774;41;20025;-86
2021/07/28 11:38:14;;;;;;;8.98;4.07;;;;;;;23.47;51.68;99573.03;2171920;41;20032;-86
2021/07/28 11:39:50;;;;;;;7.53;3.53;;;;;;;23.55;51.52;99572.66;2169944;41;20040;-83
2021/07/28 11:41:22;;;;;;;7.25;4.00;;;;;;;23.64;51.31;99578.53;2169635;41;20341;-82
2021/07/28 11:42:55;;;;;;;6.72;4.03;;;;;;;23.67;51.27;99569.88;2171070;41;20402;-84
2021/07/28 11:44:39;;;;;;;6.03;4.25;;;;;;;23.85;50.87;99574.34;2170571;41;20033;-86
2021/07/28 11:46:17;;;;;;;5.22;3.85;;;;;;;23.99;50.70;99581.16;2176413;41;20063;-84
2021/07/28 11:47:52;;;;;;;5.53;3.35;;;;;;;23.95;50.48;99570.97;2177838;41;20059;-89
2021/07/28 11:49:28;;;;;;;5.75;3.92;;;;;;;24.01;50.40;99561.81;2171578;41;20025;-84
2021/07/28 11:51:03;;;;;;;6.55;4.15;;;;;;;24.07;50.28;99566.28;2172268;41;20025;-87
2021/07/28 11:52:46;;;;;;;7.70;4.00;;;;;;;24.21;50.19;99565.97;2172753;41;20521;-87
2021/07/28 11:54:26;;;;;;;8.07;3.97;;;;;;;24.16;50.35;99549.50;2171807;41;20045;-83
2021/07/28 11:56:21;;;;;;;5.90;3.75;;;;;;;24.33;49.88;99553.06;2172292;41;20097;-82
2021/07/28 11:58:16;;;;;;;5.90;3.42;;;;;;;24.50;49.33;99553.09;2171987;41;20108;-86
2021/07/28 11:59:48;;;;;;;7.53;3.90;;;;;;;24.50;48.94;99557.69;2175401;41;20068;-84
2021/07/28 12:01:26;;;;;;;6.80;4.18;;;;;;;24.37;49.08;99559.69;2177858;41;20025;-82
2021/07/28 12:03:28;;;;;;;7.43;3.92;;;;;;;24.29;48.96;99562.81;2175395;41;20116;-87
2021/07/28 12:05:07;;;;;;;6.07;4.30;;;;;;;24.20;49.46;99562.41;2173470;41;20036;-82
2021/07/28 12:06:39;;;;;;;6.30;3.53;;;;;;;24.16;49.94;99569.44;2177656;41;20040;-84
2021/07/28 12:08:11;;;;;;;6.13;3.50;;;;;;;24.17;49.57;99562.09;2178006;41;20195;-83
2021/07/28 12:10:15;;;;;;;8.85;3.85;;;;;;;24.07;49.82;99555.38;2176991;41;20043;-81
2021/07/28 12:11:48;;;;;;;7.40;4.15;;;;;;;23.98;50.09;99554.13;2177666;40;20040;-83
2021/07/28 12:15:27;;;;;;;6.30;3.65;;;;;;;23.78;50.86;99560.81;2172060;41;20323;-84